Time;durP1;ratioP1;P1;durP2;ratioP2;P2;SDS_P1;SDS_P2;PMS_P1;PMS_P2;Temp;Humidity;BMP_temperature;BMP_pressure;BME280_temperature;BME280_humidity;BME280_pressure;Samples;Min_cycle;Max_cycle;Signal;HPM_P1;HPM_P2
2021/11/13 00:00:24;;;;;;;;;;;;;;;16.07;62.47;100897.28;5017320;28;19921;-89
2021/11/13 00:02:49;;;;;;;;;;;;;;;16.59;60.87;100888.09;5017845;28;20343;-90
2021/11/13 00:05:15;;;;;;;;;;;;;;;15.92;62.81;100900.06;5018087;28;20007;-88
2021/11/13 00:07:40;;;;;;;;;;;;;;;15.44;63.68;100894.22;5018249;28;19924;-90
2021/11/13 00:10:07;;;;;;;;;;;;;;;16.15;62.47;100889.41;5002308;28;19918;-90
2021/11/13 00:12:32;;;;;;;;;;;;;;;16.51;60.40;100882.31;5002060;28;19914;-87
2021/11/13 00:14:59;;;;;;;;;;;;;;;16.17;62.33;100890.19;5013651;28;19980;-89
2021/11/13 00:17:26;;;;;;;;;;;;;;;15.71;64.04;100882.44;5052718;28;19922;-88
2021/11/13 00:19:51;;;;;;;;;;;;;;;15.88;62.77;100884.91;5053353;28;19918;-89
2021/11/13 00:22:16;;;;;;;;;;;;;;;15.92;63.93;100888.28;5021126;28;19944;-90
2021/11/13 00:24:41;;;;;;;;;;;;;;;15.94;63.95;100881.75;5021541;28;19926;-88
2021/11/13 00:27:07;;;;;;;;;;;;;;;15.97;62.97;100882.53;5052564;28;19918;-91
2021/11/13 00:29:32;;;;;;;;;;;;;;;15.99;62.77;100880.53;5053826;28;19933;-89
2021/11/13 00:31:58;;;;;;;;;;;;;;;15.93;64.13;100879.16;5022145;28;20456;-88
2021/11/13 00:34:24;;;;;;;;;;;;;;;15.59;64.58;100870.50;5054397;28;19949;-87
2021/11/13 00:36:49;;;;;;;;;;;;;;;16.36;62.86;100861.56;5020718;28;20447;-89
2021/11/13 00:39:15;;;;;;;;;;;;;;;15.76;68.98;100872.97;5021427;28;19921;-87
2021/11/13 00:41:40;;;;;;;;;;;;;;;16.13;64.02;100872.28;5020520;28;19917;-89
2021/11/13 00:44:06;;;;;;;;;;;;;;;15.99;63.97;100859.63;5051486;28;20012;-86
2021/11/13 00:46:31;;;;;;;;;;;;;;;15.91;63.97;100856.53;5052795;28;19917;-90
2021/11/13 00:48:57;;;;;;;;;;;;;;;15.68;65.84;100856.25;5053001;28;19963;-90
2021/11/13 00:51:22;;;;;;;;;;;;;;;16.42;62.83;100847.47;5055915;28;19944;-89
2021/11/13 00:53:47;;;;;;;;;;;;;;;15.90;64.41;100850.22;5056857;28;20016;-89
2021/11/13 00:56:13;;;;;;;;;;;;;;;15.62;65.95;100853.06;5056112;28;19996;-87
2021/11/13 00:58:38;;;;;;;;;;;;;;;15.90;64.72;100852.94;5040395;28;19918;-90
2021/11/13 01:01:04;;;;;;;;;;;;;;;15.70;65.88;100843.41;5057316;28;19917;-87
2021/11/13 01:03:29;;;;;;;;;;;;;;;15.94;64.59;100834.47;5057504;28;19917;-88
2021/11/13 01:05:54;;;;;;;;;;;;;;;15.79;64.99;100849.22;5026305;28;19922;-88
2021/11/13 01:08:20;;;;;;;;;;;;;;;16.79;62.03;100834.75;5057785;28;19918;-85
2021/11/13 01:10:45;;;;;;;;;;;;;;;16.59;62.82;100836.22;5057621;28;19980;-87
2021/11/13 01:13:11;;;;;;;;;;;;;;;16.81;61.22;100827.28;5056865;28;19918;-87
2021/11/13 01:15:36;;;;;;;;;;;;;;;16.11;63.90;100834.19;5056665;28;19925;-90
2021/11/13 01:18:02;;;;;;;;;;;;;;;16.39;63.64;100823.13;5056693;28;19918;-86
2021/11/13 01:20:29;;;;;;;;;;;;;;;16.39;63.17;100829.44;5055698;28;19987;-89
2021/11/13 01:22:55;;;;;;;;;;;;;;;16.87;62.72;100830.59;5023158;28;19954;-88
2021/11/13 01:25:20;;;;;;;;;;;;;;;17.21;61.39;100826.22;5055286;28;19929;-88
2021/11/13 01:27:45;;;;;;;;;;;;;;;17.52;58.89;100821.09;5056515;28;19917;-91
2021/11/13 01:30:11;;;;;;;;;;;;;;;16.96;62.70;100830.78;5056532;28;19918;-88
2021/11/13 01:32:36;;;;;;;;;;;;;;;17.67;59.49;100827.25;5056921;28;19989;-90
2021/11/13 01:35:03;;;;;;;;;;;;;;;17.65;59.61;100832.84;5057933;28;19917;-89
2021/11/13 01:37:28;;;;;;;;;;;;;;;16.94;61.51;100820.94;5057048;28;19956;-89
2021/11/13 01:39:53;;;;;;;;;;;;;;;16.96;62.18;100825.31;5055865;28;20290;-86
2021/11/13 01:42:19;;;;;;;;;;;;;;;17.77;60.22;100819.19;5056142;28;19963;-87
2021/11/13 01:44:45;;;;;;;;;;;;;;;17.42;61.20;100817.34;5056484;28;19925;-87
2021/11/13 01:47:10;;;;;;;;;;;;;;;17.44;61.24;100813.50;5056914;28;19940;-88
2021/11/13 01:49:37;;;;;;;;;;;;;;;17.07;62.46;100820.91;5023510;28;19944;-87
2021/11/13 01:52:12;;;;;;;;;;;;;;;17.37;61.51;100817.69;5060157;28;19917;-86
2021/11/13 01:54:39;;;;;;;;;;;;;;;17.18;61.52;100819.09;5031137;28;19922;-85
2021/11/13 01:57:09;;;;;;;;;;;;;;;18.12;59.56;100819.19;5023906;28;19948;-87
2021/11/13 01:59:34;;;;;;;;;;;;;;;16.93;62.78;100820.06;5055076;28;19971;-85
2021/11/13 02:01:59;;;;;;;;;;;;;;;17.71;61.20;100809.63;5055308;28;19922;-90
2021/11/13 02:04:25;;;;;;;;;;;;;;;17.31;62.27;100805.34;5055547;28;19918;-87
2021/11/13 02:06:50;;;;;;;;;;;;;;;18.08;59.28;100808.59;5055777;28;19918;-88
2021/11/13 02:09:15;;;;;;;;;;;;;;;17.59;61.61;100811.44;5055335;28;19989;-90
2021/11/13 02:11:40;;;;;;;;;;;;;;;17.67;60.19;100810.84;5056016;28;19918;-88
2021/11/13 02:14:06;;;;;;;;;;;;;;;17.65;60.64;100813.69;5054907;28;19924;-87
2021/11/13 02:16:31;;;;;;;;;;;;;;;17.54;61.71;100808.19;5055687;28;19921;-88
2021/11/13 02:18:56;;;;;;;;;;;;;;;17.28;62.83;100796.53;5056760;28;19933;-90
2021/11/13 02:21:22;;;;;;;;;;;;;;;17.83;60.32;100802.28;5024573;28;19921;-89
2021/11/13 02:23:48;;;;;;;;;;;;;;;17.17;62.88;100798.22;5024283;28;20379;-88
2021/11/13 02:26:13;;;;;;;;;;;;;;;18.22;59.41;100795.53;5056687;28;19912;-89
2021/11/13 02:28:38;;;;;;;;;;;;;;;17.94;59.95;100798.75;5056072;28;20004;-88
2021/11/13 02:31:05;;;;;;;;;;;;;;;18.83;56.80;100794.22;5022397;28;19960;-88
2021/11/13 02:33:31;;;;;;;;;;;;;;;18.31;59.04;100802.13;5055143;28;19918;-88
2021/11/13 02:35:56;;;;;;;;;;;;;;;17.26;63.23;100791.19;5056347;28;19924;-91
2021/11/13 02:38:29;;;;;;;;;;;;;;;17.30;61.83;100789.97;5024496;28;19975;-88
2021/11/13 02:40:56;;;;;;;;;;;;;;;17.66;60.29;100796.31;5025750;28;19917;-90
2021/11/13 02:43:22;;;;;;;;;;;;;;;18.02;59.98;100782.56;5058316;28;19917;-88
2021/11/13 02:45:47;;;;;;;;;;;;;;;17.80;61.03;100792.47;5056240;28;19917;-88
2021/11/13 02:48:13;;;;;;;;;;;;;;;17.98;61.44;100792.91;5023360;28;20428;-88
2021/11/13 02:50:39;;;;;;;;;;;;;;;17.27;62.77;100790.19;5054376;28;20301;-89
2021/11/13 02:53:10;;;;;;;;;;;;;;;18.05;60.29;100785.94;5055788;28;19917;-88
2021/11/13 02:55:35;;;;;;;;;;;;;;;17.64;61.36;100787.31;5022174;28;20290;-89
2021/11/13 02:58:01;;;;;;;;;;;;;;;17.02;63.52;100806.72;5023179;28;20000;-87
2021/11/13 03:00:27;;;;;;;;;;;;;;;16.91;63.76;100797.47;5054238;28;20279;-87
2021/11/13 03:02:53;;;;;;;;;;;;;;;17.46;61.89;100806.03;5054829;28;19956;-88
2021/11/13 03:05:26;;;;;;;;;;;;;;;18.45;58.87;100802.88;5054768;28;19921;-88
2021/11/13 03:07:52;;;;;;;;;;;;;;;18.46;58.32;100800.00;5054482;28;19918;-86
2021/11/13 03:10:18;;;;;;;;;;;;;;;18.15;59.92;100796.16;5022809;28;20359;-88
2021/11/13 03:12:44;;;;;;;;;;;;;;;18.05;59.72;100794.13;5037838;28;19924;-87
2021/11/13 03:15:10;;;;;;;;;;;;;;;18.64;58.14;100785.81;5021755;28;19917;-88
2021/11/13 03:17:35;;;;;;;;;;;;;;;19.07;56.90;100794.06;5054902;28;20330;-89
2021/11/13 03:20:03;;;;;;;;;;;;;;;19.66;53.79;100794.56;5022685;28;19924;-89
2021/11/13 03:22:31;;;;;;;;;;;;;;;20.26;51.48;100793.94;5022951;28;19921;-90
2021/11/13 03:24:58;;;;;;;;;;;;;;;20.48;51.07;100790.13;5053908;28;19926;-88
2021/11/13 03:27:23;;;;;;;;;;;;;;;19.17;55.32;100788.66;5022537;28;19917;-88
2021/11/13 03:29:48;;;;;;;;;;;;;;;19.19;55.21;100785.78;5054085;28;19929;-88
2021/11/13 03:32:13;;;;;;;;;;;;;;;18.44;56.85;100791.03;5022252;28;19972;-88
2021/11/13 03:34:39;;;;;;;;;;;;;;;18.31;58.50;100793.91;5023166;28;19918;-88
2021/11/13 03:37:04;;;;;;;;;;;;;;;19.32;54.73;100791.13;5056042;28;19917;-89
2021/11/13 03:39:29;;;;;;;;;;;;;;;18.86;56.72;100801.38;5024029;28;19918;-90
2021/11/13 03:41:55;;;;;;;;;;;;;;;19.09;54.98;100803.03;5056190;28;20015;-89
2021/11/13 03:44:20;;;;;;;;;;;;;;;19.27;54.84;100805.22;5058292;28;19922;-89
2021/11/13 03:46:46;;;;;;;;;;;;;;;17.96;59.60;100814.03;5056334;28;19918;-89
2021/11/13 03:49:13;;;;;;;;;;;;;;;19.19;55.60;100815.97;5022318;28;20012;-88
2021/11/13 03:51:38;;;;;;;;;;;;;;;18.23;58.95;100815.56;5054343;28;19961;-87
2021/11/13 03:54:03;;;;;;;;;;;;;;;18.89;57.28;100801.13;5054554;28;19953;-87
2021/11/13 03:56:28;;;;;;;;;;;;;;;17.38;61.98;100813.97;5053587;28;19921;-86
2021/11/13 03:58:54;;;;;;;;;;;;;;;18.23;58.55;100818.31;5054373;28;19928;-88
2021/11/13 04:01:19;;;;;;;;;;;;;;;17.61;59.54;100819.53;5054616;28;19917;-87
2021/11/13 04:03:45;;;;;;;;;;;;;;;17.44;60.40;100821.69;5021080;28;19925;-88
2021/11/13 04:06:10;;;;;;;;;;;;;;;18.05;59.18;100820.66;5021077;28;19913;-88
2021/11/13 04:08:35;;;;;;;;;;;;;;;19.39;53.87;100820.63;5037638;28;20432;-88
2021/11/13 04:11:00;;;;;;;;;;;;;;;19.41;53.83;100821.38;5054029;28;19964;-88
2021/11/13 04:13:26;;;;;;;;;;;;;;;18.95;55.53;100822.53;5053496;28;19933;-89
2021/11/13 04:15:51;;;;;;;;;;;;;;;19.13;54.52;100825.59;5053801;28;19929;-88
2021/11/13 04:18:16;;;;;;;;;;;;;;;19.41;53.89;100829.59;5053771;28;19917;-88
2021/11/13 04:20:41;;;;;;;;;;;;;;;19.29;54.40;100831.53;5053171;28;19918;-88
2021/11/13 04:23:06;;;;;;;;;;;;;;;20.13;51.49;100835.38;5053097;28;19967;-87
2021/11/13 04:25:32;;;;;;;;;;;;;;;20.43;50.36;100830.91;5053402;28;19925;-85
2021/11/13 04:27:58;;;;;;;;;;;;;;;20.11;50.58;100829.13;5053445;28;19932;-87
2021/11/13 04:30:23;;;;;;;;;;;;;;;20.73;49.15;100815.41;5053505;28;19917;-87
2021/11/13 04:32:50;;;;;;;;;;;;;;;20.64;49.25;100823.47;5054034;28;20093;-87
2021/11/13 04:35:18;;;;;;;;;;;;;;;20.58;49.06;100823.13;5053973;28;19992;-87
2021/11/13 04:37:54;;;;;;;;;;;;;;;20.54;49.55;100828.03;5054437;28;19984;-87
2021/11/13 04:40:21;;;;;;;;;;;;;;;20.57;49.38;100829.66;5037065;28;19949;-87
2021/11/13 04:42:47;;;;;;;;;;;;;;;20.82;48.61;100833.81;5053379;28;19917;-87
2021/11/13 04:45:12;;;;;;;;;;;;;;;20.43;49.89;100842.75;5052357;28;19963;-87
2021/11/13 04:47:38;;;;;;;;;;;;;;;19.78;51.70;100847.56;5053800;28;19949;-87
2021/11/13 04:50:04;;;;;;;;;;;;;;;19.96;51.17;100853.34;5053669;28;19921;-88
2021/11/13 04:52:29;;;;;;;;;;;;;;;20.04;50.71;100863.66;5053465;28;19918;-87
2021/11/13 04:54:55;;;;;;;;;;;;;;;19.11;53.88;100850.41;5056302;28;19972;-85
2021/11/13 04:57:20;;;;;;;;;;;;;;;18.85;54.34;100852.56;5057734;28;19918;-86
2021/11/13 04:59:45;;;;;;;;;;;;;;;19.09;54.07;100855.13;5056288;28;19918;-86
2021/11/13 05:02:21;;;;;;;;;;;;;;;19.00;54.62;100861.38;5047960;28;20529;-85
2021/11/13 05:04:48;;;;;;;;;;;;;;;19.60;52.76;100863.72;5018085;28;19917;-87
2021/11/13 05:07:13;;;;;;;;;;;;;;;19.21;53.65;100863.34;5036232;28;19914;-89
2021/11/13 05:09:38;;;;;;;;;;;;;;;18.99;54.11;100858.78;5035791;28;19961;-87
2021/11/13 05:12:04;;;;;;;;;;;;;;;19.55;53.00;100868.72;5035591;28;19921;-88
2021/11/13 05:14:29;;;;;;;;;;;;;;;19.36;53.15;100863.94;5020245;28;19972;-87
2021/11/13 05:16:54;;;;;;;;;;;;;;;19.60;52.19;100871.94;5036307;28;19928;-84
2021/11/13 05:19:21;;;;;;;;;;;;;;;20.22;50.43;100862.03;5049719;28;19917;-83
2021/11/13 05:21:46;;;;;;;;;;;;;;;20.23;50.41;100862.88;5049503;28;19957;-83
2021/11/13 05:24:12;;;;;;;;;;;;;;;20.64;49.05;100870.19;5046530;28;19971;-85
2021/11/13 05:26:38;;;;;;;;;;;;;;;20.56;49.07;100872.75;5050909;28;19914;-83
2021/11/13 05:29:03;;;;;;;;;;;;;;;20.86;48.69;100868.28;5047471;28;20028;-85
2021/11/13 05:31:28;;;;;;;;;;;;;;;20.88;48.67;100874.53;5051477;28;19924;-84
2021/11/13 05:33:54;;;;;;;;;;;;;;;20.17;50.75;100878.91;5048487;28;19968;-85
2021/11/13 05:36:19;;;;;;;;;;;;;;;19.24;53.90;100874.06;5019486;28;19949;-83
2021/11/13 05:38:44;;;;;;;;;;;;;;;19.70;52.52;100883.88;5023697;28;19968;-89
2021/11/13 05:41:09;;;;;;;;;;;;;;;19.98;51.62;100876.03;5057603;28;20275;-89
2021/11/13 05:43:35;;;;;;;;;;;;;;;19.60;52.60;100885.66;5056723;28;19960;-89
2021/11/13 05:46:00;;;;;;;;;;;;;;;19.71;52.64;100879.25;5055490;28;19917;-86
2021/11/13 05:48:25;;;;;;;;;;;;;;;20.21;50.89;100881.38;5056887;28;19917;-87
2021/11/13 05:50:51;;;;;;;;;;;;;;;20.46;50.22;100886.44;5056846;28;19922;-88
2021/11/13 05:53:16;;;;;;;;;;;;;;;20.65;49.70;100893.03;5056578;28;19925;-88
2021/11/13 05:55:41;;;;;;;;;;;;;;;20.41;50.28;100899.75;5057517;28;19929;-88
2021/11/13 05:58:06;;;;;;;;;;;;;;;20.48;50.05;100895.41;5058119;28;20390;-89
2021/11/13 06:00:40;;;;;;;;;;;;;;;20.25;50.87;100902.09;5041074;28;19917;-88
2021/11/13 06:03:05;;;;;;;;;;;;;;;20.34;50.50;100901.28;5058001;28;19922;-87
2021/11/13 06:05:31;;;;;;;;;;;;;;;20.31;50.32;100905.16;5058270;28;19913;-87
2021/11/13 06:07:56;;;;;;;;;;;;;;;19.71;52.75;100904.81;5058497;28;19973;-91
2021/11/13 06:10:21;;;;;;;;;;;;;;;19.18;53.61;100904.75;5057114;28;19918;-88
2021/11/13 06:12:47;;;;;;;;;;;;;;;18.73;54.99;100909.22;5057001;28;19917;-89
2021/11/13 06:15:16;;;;;;;;;;;;;;;18.33;56.43;100909.69;5056586;28;19924;-87
2021/11/13 06:17:41;;;;;;;;;;;;;;;18.21;58.06;100905.19;5040670;28;19957;-87
2021/11/13 06:20:07;;;;;;;;;;;;;;;18.56;57.05;100905.09;5025060;28;19940;-88
2021/11/13 06:22:33;;;;;;;;;;;;;;;18.97;55.60;100907.38;5056530;28;19922;-89
2021/11/13 06:24:58;;;;;;;;;;;;;;;19.22;54.59;100919.94;5055876;28;19933;-86
2021/11/13 06:27:23;;;;;;;;;;;;;;;19.35;53.70;100912.41;5054946;28;19913;-86
2021/11/13 06:29:49;;;;;;;;;;;;;;;20.11;51.80;100914.25;5023671;28;19947;-87
2021/11/13 06:32:14;;;;;;;;;;;;;;;19.46;53.70;100915.16;5038380;28;19918;-90
2021/11/13 06:34:40;;;;;;;;;;;;;;;19.50;53.65;100917.63;5023723;28;20000;-88
2021/11/13 06:37:06;;;;;;;;;;;;;;;19.43;53.21;100920.91;5023697;28;20020;-89
2021/11/13 06:39:31;;;;;;;;;;;;;;;19.55;52.94;100932.72;5022876;28;19986;-87
2021/11/13 06:41:57;;;;;;;;;;;;;;;20.02;51.79;100929.69;5055120;28;20343;-89
2021/11/13 06:44:22;;;;;;;;;;;;;;;20.10;51.22;100934.53;5055229;28;19956;-86
2021/11/13 06:46:48;;;;;;;;;;;;;;;20.09;51.13;100941.00;5019588;28;19920;-89
2021/11/13 06:49:13;;;;;;;;;;;;;;;19.84;52.12;100940.38;5053474;28;20020;-86
2021/11/13 06:51:38;;;;;;;;;;;;;;;19.97;51.73;100938.31;5055066;28;19936;-87
2021/11/13 06:54:03;;;;;;;;;;;;;;;20.54;49.92;100944.34;5022425;28;19937;-87
2021/11/13 06:56:33;;;;;;;;;;;;;;;20.35;49.99;100955.22;5056912;28;19960;-86
2021/11/13 06:58:58;;;;;;;;;;;;;;;20.49;50.03;100957.63;5056368;28;19920;-88
2021/11/13 07:01:23;;;;;;;;;;;;;;;20.78;48.93;100959.72;5021791;28;20012;-86
2021/11/13 07:03:49;;;;;;;;;;;;;;;20.53;49.57;100963.72;5053957;28;19921;-88
2021/11/13 07:06:14;;;;;;;;;;;;;;;20.73;49.40;100970.25;5020486;28;19941;-87
2021/11/13 07:08:39;;;;;;;;;;;;;;;20.62;49.57;100971.19;5022615;28;19960;-88
2021/11/13 07:11:04;;;;;;;;;;;;;;;20.45;50.12;100980.03;5022620;28;19917;-88
2021/11/13 07:13:30;;;;;;;;;;;;;;;20.37;50.71;100980.69;5022920;28;19917;-88
2021/11/13 07:15:55;;;;;;;;;;;;;;;20.26;50.63;100984.38;5055747;28;19925;-88
2021/11/13 07:18:20;;;;;;;;;;;;;;;20.63;49.86;100985.78;5054812;28;19918;-88
2021/11/13 07:20:57;;;;;;;;;;;;;;;20.14;50.85;100993.66;5056532;28;19953;-88
2021/11/13 07:23:22;;;;;;;;;;;;;;;20.60;49.90;100991.56;5055842;28;19967;-86
2021/11/13 07:25:48;;;;;;;;;;;;;;;20.13;50.78;101002.91;5055497;28;19922;-88
2021/11/13 07:28:25;;;;;;;;;;;;;;;20.57;49.79;101005.56;5053476;28;20744;-88
2021/11/13 07:30:51;;;;;;;;;;;;;;;20.33;50.47;101007.53;5037438;28;19945;-89
2021/11/13 07:33:16;;;;;;;;;;;;;;;20.78;49.58;101020.19;5053590;28;19925;-89
2021/11/13 07:35:48;;;;;;;;;;;;;;;20.73;49.44;101016.09;5054330;28;19921;-89
2021/11/13 07:38:14;;;;;;;;;;;;;;;20.62;50.02;101023.41;5054657;28;19922;-90
2021/11/13 07:40:39;;;;;;;;;;;;;;;20.99;49.03;101025.69;5021427;28;20019;-91
2021/11/13 07:43:04;;;;;;;;;;;;;;;20.79;49.72;101032.94;5053987;28;19980;-88
2021/11/13 07:45:30;;;;;;;;;;;;;;;20.97;48.90;101029.56;5021550;28;19917;-89
2021/11/13 07:47:56;;;;;;;;;;;;;;;20.51;50.31;101028.94;5053517;28;20016;-88
2021/11/13 07:50:21;;;;;;;;;;;;;;;20.82;49.72;101032.69;5053211;28;19944;-86
2021/11/13 07:52:47;;;;;;;;;;;;;;;20.44;50.81;101039.63;5037092;28;20004;-85
2021/11/13 07:55:13;;;;;;;;;;;;;;;21.02;49.61;101041.91;5053645;28;19922;-86
2021/11/13 07:57:39;;;;;;;;;;;;;;;21.35;48.77;101036.28;5052927;28;19921;-86
2021/11/13 08:00:07;;;;;;;;;;;;;;;20.95;49.57;101040.69;5053873;28;19936;-85
2021/11/13 08:02:32;;;;;;;;;;;;;;;21.18;49.17;101035.91;5054398;28;19924;-86
2021/11/13 08:04:58;;;;;;;;;;;;;;;21.33;49.28;101035.53;5055355;28;19917;-84
2021/11/13 08:07:23;;;;;;;;;;;;;;;21.40;48.78;101039.47;5021186;28;20493;-85
2021/11/13 08:09:49;;;;;;;;;;;;;;;21.16;49.15;101045.31;5053251;28;19953;-85
2021/11/13 08:12:14;;;;;;;;;;;;;;;20.71;50.39;101043.72;5052133;28;20120;-87
2021/11/13 08:14:40;;;;;;;;;;;;;;;20.10;52.26;101048.00;5051972;28;20283;-87
2021/11/13 08:17:05;;;;;;;;;;;;;;;20.51;51.09;101057.28;5052606;28;19922;-87
2021/11/13 08:19:31;;;;;;;;;;;;;;;20.18;52.26;101056.47;5052925;28;19917;-87
2021/11/13 08:21:56;;;;;;;;;;;;;;;20.27;52.47;101062.16;5053387;28;19983;-87
2021/11/13 08:24:27;;;;;;;;;;;;;;;20.53;51.87;101068.16;5051700;28;19944;-86
2021/11/13 08:26:53;;;;;;;;;;;;;;;21.15;50.55;101077.47;5033461;28;20016;-87
2021/11/13 08:29:18;;;;;;;;;;;;;;;20.30;52.54;101072.88;5050768;28;20369;-87
2021/11/13 08:31:43;;;;;;;;;;;;;;;20.78;51.33;101080.69;5047723;28;19967;-84
2021/11/13 08:34:09;;;;;;;;;;;;;;;20.74;51.58;101081.94;5017391;28;19961;-83
2021/11/13 08:36:34;;;;;;;;;;;;;;;20.09;53.08;101087.44;5047823;28;19905;-87
2021/11/13 08:38:59;;;;;;;;;;;;;;;20.84;50.82;101091.16;5049462;28;19921;-86
2021/11/13 08:41:24;;;;;;;;;;;;;;;21.41;49.80;101088.88;5049876;28;19918;-85
2021/11/13 08:43:50;;;;;;;;;;;;;;;21.26;49.88;101082.00;5001272;28;19965;-87
2021/11/13 08:46:16;;;;;;;;;;;;;;;21.38;49.47;101088.28;5026746;28;19973;-87
2021/11/13 08:48:42;;;;;;;;;;;;;;;21.52;49.26;101093.44;5029231;28;19917;-85
2021/11/13 08:51:07;;;;;;;;;;;;;;;21.09;50.28;101094.50;5024442;28;20008;-86
2021/11/13 08:53:32;;;;;;;;;;;;;;;21.53;49.24;101088.81;5023322;28;19924;-84
2021/11/13 08:55:58;;;;;;;;;;;;;;;21.74;48.76;101095.13;5025614;28;19914;-89
2021/11/13 08:58:23;;;;;;;;;;;;;;;21.61;49.09;101096.41;5020628;28;20008;-87
2021/11/13 09:00:48;;;;;;;;;;;;;;;21.37;49.87;101095.66;5023435;28;19925;-85
2021/11/13 09:03:17;;;;;;;;;;;;;;;21.71;49.24;101098.16;5021246;28;19917;-88
2021/11/13 09:05:42;;;;;;;;;;;;;;;21.42;49.47;101109.91;5021283;28;19972;-87
2021/11/13 09:08:07;;;;;;;;;;;;;;;20.94;50.89;101106.84;5020610;28;20306;-85
2021/11/13 09:10:33;;;;;;;;;;;;;;;20.85;50.76;101112.16;5016801;28;19918;-88
2021/11/13 09:12:59;;;;;;;;;;;;;;;20.76;50.66;101110.22;5015646;28;19929;-90
2021/11/13 09:15:26;;;;;;;;;;;;;;;21.15;50.18;101101.34;5016696;28;19922;-88
2021/11/13 09:17:52;;;;;;;;;;;;;;;21.00;50.79;101109.94;5017027;28;19928;-89
2021/11/13 09:20:18;;;;;;;;;;;;;;;21.12;50.47;101105.25;5015813;28;19918;-84
2021/11/13 09:22:43;;;;;;;;;;;;;;;21.25;49.90;101114.13;5015611;28;19944;-85
2021/11/13 09:25:09;;;;;;;;;;;;;;;21.23;50.27;101116.16;4999676;28;19926;-83
2021/11/13 09:27:38;;;;;;;;;;;;;;;21.08;50.51;101116.66;5014114;28;20367;-82
2021/11/13 09:30:10;;;;;;;;;;;;;;;21.06;51.51;101120.41;5015856;28;19917;-87
2021/11/13 09:32:37;;;;;;;;;;;;;;;20.61;52.60;101125.22;5015720;28;19918;-86
2021/11/13 09:35:02;;;;;;;;;;;;;;;20.66;51.83;101134.00;5014938;28;19917;-83
2021/11/13 09:37:29;;;;;;;;;;;;;;;20.56;52.38;101127.50;5014414;28;19945;-85
2021/11/13 09:39:54;;;;;;;;;;;;;;;20.86;51.18;101130.41;5015666;28;19918;-85
2021/11/13 09:42:20;;;;;;;;;;;;;;;20.86;51.06;101127.66;5000746;28;19918;-86
2021/11/13 09:44:45;;;;;;;;;;;;;;;21.27;50.82;101133.25;5015696;28;19922;-87
2021/11/13 09:47:11;;;;;;;;;;;;;;;21.41;50.98;101134.81;5001484;28;19987;-85
2021/11/13 09:49:36;;;;;;;;;;;;;;;21.48;50.49;101129.63;5001433;28;19918;-86
2021/11/13 09:52:02;;;;;;;;;;;;;;;21.25;51.57;101136.16;5014644;28;19972;-85
2021/11/13 09:54:28;;;;;;;;;;;;;;;21.23;51.39;101135.41;5016833;28;19974;-89
2021/11/13 09:56:53;;;;;;;;;;;;;;;21.54;51.41;101142.84;5017209;28;19925;-86
2021/11/13 09:59:19;;;;;;;;;;;;;;;21.50;51.18;101146.88;5001677;28;19953;-87
2021/11/13 10:01:44;;;;;;;;;;;;;;;21.72;50.98;101154.97;5018409;28;19964;-87
2021/11/13 10:04:09;;;;;;;;;;;;;;;21.57;51.97;101148.97;5018419;28;19906;-89
2021/11/13 10:06:35;;;;;;;;;;;;;;;21.23;52.84;101153.81;5016198;28;19931;-91
2021/11/13 10:09:01;;;;;;;;;;;;;;;20.81;52.85;101153.81;5016551;28;19949;-82
2021/11/13 10:11:28;;;;;;;;;;;;;;;20.80;52.40;101152.91;5016452;28;19941;-88
2021/11/13 10:13:55;;;;;;;;;;;;;;;21.64;51.62;101152.03;5016540;28;20286;-88
2021/11/13 10:16:30;;;;;;;;;;;;;;;21.52;50.98;101151.25;5016843;28;19918;-85
2021/11/13 10:18:55;;;;;;;;;;;;;;;20.78;51.88;101157.69;5015929;28;19989;-85
2021/11/13 10:21:27;;;;;;;;;;;;;;;20.47;53.22;101156.63;4999537;28;20398;-85
2021/11/13 10:23:53;;;;;;;;;;;;;;;20.69;52.79;101161.22;5014218;28;19925;-86
2021/11/13 10:26:23;;;;;;;;;;;;;;;21.13;51.58;101164.75;4999320;28;19932;-89
2021/11/13 10:28:51;;;;;;;;;;;;;;;20.68;52.45;101162.22;5017417;28;19949;-87
2021/11/13 10:31:21;;;;;;;;;;;;;;;20.95;51.48;101166.34;5015482;28;20006;-84
2021/11/13 10:33:47;;;;;;;;;;;;;;;21.22;51.14;101163.94;5015876;28;19906;-89
2021/11/13 10:36:13;;;;;;;;;;;;;;;20.53;52.76;101176.25;5016898;28;19918;-87
2021/11/13 10:38:42;;;;;;;;;;;;;;;20.15;53.89;101166.56;5014872;28;19917;-88
2021/11/13 10:41:09;;;;;;;;;;;;;;;20.34;53.65;101176.06;5016678;28;19918;-86
2021/11/13 10:43:36;;;;;;;;;;;;;;;20.84;52.70;101176.41;5014711;28;19977;-84
2021/11/13 10:46:03;;;;;;;;;;;;;;;22.42;49.95;101173.47;5016491;28;20000;-89
2021/11/13 10:48:29;;;;;;;;;;;;;;;23.05;46.82;101172.22;5017200;28;19918;-85
2021/11/13 10:51:09;;;;;;;;;;;;;;;23.08;46.97;101174.69;5016912;28;19917;-85
2021/11/13 10:53:35;;;;;;;;;;;;;;;24.40;44.99;101180.22;5017746;28;19918;-86
2021/11/13 10:56:09;;;;;;;;;;;;;;;24.64;44.01;101184.28;5007269;28;19988;-84
2021/11/13 10:58:36;;;;;;;;;;;;;;;23.77;45.21;101181.81;5023105;28;19957;-85
2021/11/13 11:01:05;;;;;;;;;;;;;;;23.71;44.73;101177.75;5018187;28;20394;-86
2021/11/13 11:03:34;;;;;;;;;;;;;;;23.69;44.11;101181.72;5000302;28;20096;-91
2021/11/13 11:05:59;;;;;;;;;;;;;;;23.07;46.50;101178.44;5000277;28;19924;-88
2021/11/13 11:08:29;;;;;;;;;;;;;;;22.36;47.75;101190.59;5015311;28;19914;-87
2021/11/13 11:10:54;;;;;;;;;;;;;;;22.10;49.08;101185.56;4999919;28;19967;-85
2021/11/13 11:13:38;;;;;;;;;;;;;;;21.54;50.02;101193.31;5014603;28;19918;-82
2021/11/13 11:16:16;;;;;;;;;;;;;;;21.28;50.78;101189.19;5020264;28;19921;-84
2021/11/13 11:18:52;;;;;;;;;;;;;;;22.32;48.30;101191.91;5029286;28;19929;-87
2021/11/13 11:21:36;;;;;;;;;;;;;;;21.37;50.27;101193.88;5014673;28;19922;-85
2021/11/13 11:24:28;;;;;;;;;;;;;;;21.21;50.71;101189.72;5017926;28;19925;-86
2021/11/13 11:26:54;;;;;;;;;;;;;;;21.34;50.20;101196.91;5033504;28;20004;-85
2021/11/13 11:29:20;;;;;;;;;;;;;;;22.42;48.32;101201.03;5034665;28;19981;-87
2021/11/13 11:31:47;;;;;;;;;;;;;;;22.74;46.39;101189.78;5035337;28;20475;-85
2021/11/13 11:34:26;;;;;;;;;;;;;;;21.83;49.31;101198.09;5033333;28;19917;-85
2021/11/13 11:36:53;;;;;;;;;;;;;;;22.52;47.09;101201.94;5033979;28;20000;-87
2021/11/13 11:39:18;;;;;;;;;;;;;;;23.40;45.74;101196.47;5018950;28;19917;-85
2021/11/13 11:41:44;;;;;;;;;;;;;;;23.03;45.67;101204.59;5019096;28;19968;-88
2021/11/13 11:44:11;;;;;;;;;;;;;;;23.40;45.45;101198.34;5035684;28;19933;-88
2021/11/13 11:46:36;;;;;;;;;;;;;;;24.47;43.78;101202.59;5020387;28;19925;-85
2021/11/13 11:49:01;;;;;;;;;;;;;;;24.29;43.85;101197.91;5021236;28;20345;-85
2021/11/13 11:51:27;;;;;;;;;;;;;;;25.03;40.47;101206.13;5024083;28;20004;-88
2021/11/13 11:53:53;;;;;;;;;;;;;;;25.26;40.55;101209.28;4997804;28;19926;-86
2021/11/13 11:56:18;;;;;;;;;;;;;;;24.91;40.29;101208.25;5017088;28;19929;-85
2021/11/13 11:58:44;;;;;;;;;;;;;;;24.20;42.30;101212.63;5014626;28;19921;-88
2021/11/13 12:01:30;;;;;;;;;;;;;;;23.70;43.01;101224.84;5015603;28;19924;-88
2021/11/13 12:04:17;;;;;;;;;;;;;;;23.14;44.19;101221.03;5015414;28;19921;-86
2021/11/13 12:06:44;;;;;;;;;;;;;;;23.60;43.20;101224.03;5014206;28;19924;-88
2021/11/13 12:09:09;;;;;;;;;;;;;;;22.84;44.72;101220.13;5014305;28;20290;-88
2021/11/13 12:11:36;;;;;;;;;;;;;;;22.17;46.37;101225.31;5014452;28;19985;-88
2021/11/13 12:14:20;;;;;;;;;;;;;;;22.27;46.73;101231.75;5015390;28;19918;-88
2021/11/13 12:16:45;;;;;;;;;;;;;;;21.79;47.56;101231.56;5015705;28;19921;-87
2021/11/13 12:19:11;;;;;;;;;;;;;;;21.25;47.73;101229.69;5019855;28;19984;-87
2021/11/13 12:21:36;;;;;;;;;;;;;;;21.04;49.10;101237.06;5013526;28;19921;-87
2021/11/13 12:24:06;;;;;;;;;;;;;;;21.53;47.86;101230.09;5020381;28;20583;-88
2021/11/13 12:26:37;;;;;;;;;;;;;;;22.11;46.67;101234.16;5008657;28;19925;-86
2021/11/13 12:29:12;;;;;;;;;;;;;;;22.56;45.71;101236.50;5026184;28;20013;-84
2021/11/13 12:31:39;;;;;;;;;;;;;;;21.48;48.40;101240.59;5019298;28;20561;-86